North Kingstown, Rhode Island
Current Conditions -  °F | °C
As of 3:03 PM on Monday 22 Dec 2014 (Local Time) from KUUU Reporting Station
Broken Clouds Broken Clouds  
Wind Chill: 37°   Ceiling: 3300
Heat Index: 43°   Visibility: 10mi
Dew Point: 39°   Wind: 10mph
Humidity: 86%   Direction: 90°E
Pressure: 30.28"   Gusts: NA
Location:  41.6°N, 71.42°W
Report Text: KUUU 222003Z AUTO 09009KT 10SM FEW021 SCT027 BKN033 06/04 A3028 RMK AO2 T00610039
Loading
Personal Weather Stations






























Interactive Weather Map New forecast layout! Learn more

10-Day Weather Forecast

Advertisements
Track Severe Weather on mobile